Time;durP1;ratioP1;P1;durP2;ratioP2;P2;SDS_P1;SDS_P2;PMS_P1;PMS_P2;Temp;Humidity;BMP_temperature;BMP_pressure;BME280_temperature;BME280_humidity;BME280_pressure;Samples;Min_cycle;Max_cycle;Signal;HPM_P1;HPM_P2
2022/09/29 00:00:15;;;;;;;28.92;17.00;;;;;;;3.26;100.00;99840.75;2097286;28;29498;-74
2022/09/29 00:01:18;;;;;;;25.95;16.40;;;;;;;3.22;100.00;99844.34;2097703;28;31859;-74
2022/09/29 00:02:19;;;;;;;30.25;17.70;;;;;;;3.20;100.00;99846.13;2087755;28;37718;-74
2022/09/29 00:03:22;;;;;;;26.27;14.85;;;;;;;3.17;100.00;99840.84;2088929;28;31189;-74
2022/09/29 00:04:24;;;;;;;26.55;16.98;;;;;;;3.16;100.00;99840.00;2088551;28;28985;-74
2022/09/29 00:05:26;;;;;;;24.73;15.70;;;;;;;3.11;100.00;99841.81;2089653;28;23391;-74
2022/09/29 00:06:27;;;;;;;24.77;15.27;;;;;;;3.10;100.00;99847.09;2097295;28;40116;-74
2022/09/29 00:07:31;;;;;;;28.50;17.42;;;;;;;3.06;100.00;99844.47;2098866;28;20751;-74
2022/09/29 00:08:32;;;;;;;29.27;17.42;;;;;;;3.04;100.00;99845.41;2089097;28;20037;-74
2022/09/29 00:09:34;;;;;;;24.15;15.50;;;;;;;3.05;100.00;99841.84;2089218;28;33695;-74
2022/09/29 00:10:39;;;;;;;28.50;16.65;;;;;;;3.03;100.00;99844.53;2097904;28;35743;-74
2022/09/29 00:11:42;;;;;;;22.48;14.93;;;;;;;3.01;100.00;99838.34;2097774;28;32050;-74
2022/09/29 00:12:44;;;;;;;28.73;16.67;;;;;;;3.00;100.00;99841.91;2098023;28;20037;-74
2022/09/29 00:13:47;;;;;;;33.55;18.38;;;;;;;3.05;100.00;99847.13;2097444;28;33780;-74
2022/09/29 00:14:49;;;;;;;28.75;17.65;;;;;;;3.04;100.00;99840.97;2088272;28;34519;-74
2022/09/29 00:16:00;;;;;;;27.42;16.77;;;;;;;3.02;100.00;99847.19;2089090;28;30051;-74
2022/09/29 00:17:02;;;;;;;24.50;15.60;;;;;;;2.98;100.00;99845.44;2087988;28;39397;-74
2022/09/29 00:18:04;;;;;;;25.00;16.17;;;;;;;2.95;100.00;99841.06;2089710;28;29729;-74
2022/09/29 00:19:21;;;;;;;29.15;17.85;;;;;;;2.90;100.00;99842.88;2097144;28;33745;-73
2022/09/29 00:20:23;;;;;;;24.52;15.25;;;;;;;2.90;100.00;99837.59;2097530;28;37204;-74
2022/09/29 00:21:25;;;;;;;23.33;14.57;;;;;;;2.86;100.00;99834.09;2097693;28;20037;-73
2022/09/29 00:22:26;;;;;;;28.83;16.90;;;;;;;2.84;100.00;99838.53;2097428;28;33015;-73
2022/09/29 00:23:30;;;;;;;27.88;17.77;;;;;;;2.88;100.00;99835.88;2097565;28;27359;-73
2022/09/29 00:24:31;;;;;;;30.55;17.75;;;;;;;2.88;100.00;99833.22;2088389;28;35771;-74
2022/09/29 00:25:33;;;;;;;28.17;17.65;;;;;;;2.88;100.00;99838.50;2088836;28;33277;-73
2022/09/29 00:26:35;;;;;;;24.98;16.13;;;;;;;2.84;100.00;99833.25;2088503;28;38889;-74
2022/09/29 00:27:37;;;;;;;34.40;19.40;;;;;;;2.81;100.00;99833.25;2080988;28;21133;-73
2022/09/29 00:28:45;;;;;;;36.97;21.10;;;;;;;2.83;100.00;99830.59;2088784;28;20041;-73
2022/09/29 00:29:49;;;;;;;34.60;19.13;;;;;;;2.87;100.00;99837.63;2096916;28;35046;-73
2022/09/29 00:30:51;;;;;;;36.33;19.55;;;;;;;2.93;100.00;99831.41;2088309;28;35453;-73
2022/09/29 00:31:53;;;;;;;33.92;18.27;;;;;;;2.94;100.00;99841.09;2087927;28;37422;-73
2022/09/29 00:32:55;;;;;;;32.63;19.25;;;;;;;2.90;100.00;99831.44;2097485;28;31757;-73
2022/09/29 00:33:57;;;;;;;33.35;19.65;;;;;;;2.87;100.00;99837.63;2096742;28;35957;-73
2022/09/29 00:34:59;;;;;;;32.60;18.30;;;;;;;2.86;100.00;99831.47;2097362;28;39657;-73
2022/09/29 00:36:05;;;;;;;31.60;18.92;;;;;;;2.84;100.00;99832.38;2097362;28;25938;-73
2022/09/29 00:37:07;;;;;;;26.63;16.30;;;;;;;2.83;100.00;99835.91;2097443;28;33555;-73
2022/09/29 00:38:09;;;;;;;33.55;20.02;;;;;;;2.82;100.00;99839.44;2097319;28;31932;-73
2022/09/29 00:39:11;;;;;;;31.17;18.80;;;;;;;2.81;100.00;99843.84;2097412;28;31245;-73
2022/09/29 00:40:13;;;;;;;26.60;16.35;;;;;;;2.78;100.00;99843.00;2097579;28;20037;-73
2022/09/29 00:41:23;;;;;;;33.08;18.83;;;;;;;2.77;100.00;99849.19;2097548;28;33401;-73
2022/09/29 00:42:24;;;;;;;29.63;16.45;;;;;;;2.77;100.00;99846.53;2097319;28;30214;-73
2022/09/29 00:44:00;;;;;;;28.58;16.35;;;;;;;2.74;100.00;99841.28;2097928;28;20834;-73
2022/09/29 00:45:14;;;;;;;24.27;13.68;;;;;;;2.73;100.00;99839.50;2097162;28;33508;-73
2022/09/29 00:46:40;;;;;;;29.88;16.45;;;;;;;2.72;100.00;99843.06;2097648;28;20041;-72
2022/09/29 00:47:45;;;;;;;32.47;19.60;;;;;;;2.75;100.00;99843.91;2097607;28;32415;-73
2022/09/29 00:48:50;;;;;;;38.40;20.95;;;;;;;2.84;100.00;99842.94;2088391;28;20075;-72
2022/09/29 00:50:31;;;;;;;32.22;17.58;;;;;;;2.83;100.00;99846.47;2088535;28;34809;-73
2022/09/29 00:51:35;;;;;;;28.70;15.45;;;;;;;2.81;100.00;99842.97;2088584;28;35506;-73
2022/09/29 00:52:45;;;;;;;28.67;17.55;;;;;;;2.80;100.00;99841.19;2093447;28;35599;-73
2022/09/29 00:53:48;;;;;;;31.63;17.30;;;;;;;2.74;100.00;99841.28;2097423;28;30348;-73
2022/09/29 00:55:17;;;;;;;35.95;20.55;;;;;;;2.72;100.00;99838.63;2088061;28;31019;-72
2022/09/29 00:56:21;;;;;;;29.40;17.20;;;;;;;2.70;100.00;99837.78;2093120;28;27924;-73
2022/09/29 00:57:32;;;;;;;32.47;17.85;;;;;;;2.68;100.00;99839.56;2080583;28;20081;-73
2022/09/29 00:58:43;;;;;;;30.42;17.92;;;;;;;2.64;100.00;99840.50;2089157;28;40421;-73
2022/09/29 01:00:06;;;;;;;28.48;16.90;;;;;;;2.63;100.00;99830.78;2087265;28;34254;-73
2022/09/29 01:01:10;;;;;;;33.42;18.75;;;;;;;2.60;100.00;99833.44;2091157;28;34301;-73
2022/09/29 01:02:14;;;;;;;30.38;17.58;;;;;;;2.59;100.00;99837.88;2087849;28;39820;-73
2022/09/29 01:03:20;;;;;;;30.20;17.33;;;;;;;2.59;100.00;99832.59;2088675;28;33607;-72
2022/09/29 01:04:22;;;;;;;36.53;19.83;;;;;;;2.63;100.00;99834.31;2080028;28;29584;-73
2022/09/29 01:05:33;;;;;;;36.72;20.33;;;;;;;2.63;100.00;99838.72;2081126;28;26124;-72
2022/09/29 01:06:48;;;;;;;33.65;19.27;;;;;;;2.65;100.00;99842.22;2088544;28;27397;-73
2022/09/29 01:07:50;;;;;;;34.90;18.27;;;;;;;2.62;100.00;99842.25;2091344;28;34408;-73
2022/09/29 01:09:03;;;;;;;33.65;17.65;;;;;;;2.61;100.00;99841.38;2087728;28;36219;-73
2022/09/29 01:10:06;;;;;;;31.05;17.30;;;;;;;2.62;100.00;99842.25;2090626;28;22527;-73
2022/09/29 01:11:11;;;;;;;33.75;19.20;;;;;;;2.65;100.00;99842.22;2096873;28;38604;-73
2022/09/29 01:12:12;;;;;;;34.72;19.10;;;;;;;2.70;100.00;99839.56;2088386;28;31188;-73
2022/09/29 01:13:14;;;;;;;36.72;18.60;;;;;;;2.69;100.00;99846.59;2088490;28;35997;-73
2022/09/29 01:14:18;;;;;;;34.33;19.23;;;;;;;2.74;100.00;99836.84;2088388;28;28957;-73
2022/09/29 01:15:21;;;;;;;34.78;19.08;;;;;;;2.75;100.00;99843.91;2088144;28;34052;-73
2022/09/29 01:16:23;;;;;;;33.08;18.35;;;;;;;2.75;100.00;99846.53;2088574;28;38434;-73
2022/09/29 01:17:25;;;;;;;38.20;19.92;;;;;;;2.72;100.00;99840.41;2088331;28;22484;-73
2022/09/29 01:18:27;;;;;;;36.97;20.83;;;;;;;2.70;100.00;99840.41;2087784;28;33255;-73
2022/09/29 01:19:49;;;;;;;42.22;22.08;;;;;;;2.65;100.00;99843.09;2088228;28;27757;-73
2022/09/29 01:21:09;;;;;;;35.95;19.65;;;;;;;2.60;100.00;99847.56;2088334;28;27505;-73
2022/09/29 01:22:46;;;;;;;32.58;17.60;;;;;;;2.58;100.00;99843.16;2093106;28;34219;-72
2022/09/29 01:24:12;;;;;;;28.95;15.95;;;;;;;2.55;100.00;99846.72;2097071;28;36232;-73
2022/09/29 01:25:35;;;;;;;31.85;17.00;;;;;;;2.49;100.00;99844.09;2097154;28;35696;-73
2022/09/29 01:27:20;;;;;;;30.55;17.13;;;;;;;2.41;100.00;99840.66;2097456;28;34669;-73
2022/09/29 01:28:51;;;;;;;26.38;15.70;;;;;;;2.37;100.00;99844.19;2096828;28;36675;-73
2022/09/29 01:30:12;;;;;;;28.40;16.13;;;;;;;2.28;100.00;99845.16;2096836;28;35042;-74
2022/09/29 01:31:55;;;;;;;29.77;16.40;;;;;;;2.26;100.00;99841.63;2097323;28;32479;-73
2022/09/29 01:33:28;;;;;;;31.80;15.90;;;;;;;2.22;100.00;99837.25;2088744;28;20126;-73
2022/09/29 01:34:53;;;;;;;29.63;15.80;;;;;;;2.16;100.00;99846.09;2088015;28;33089;-73
2022/09/29 01:36:39;;;;;;;31.00;16.83;;;;;;;2.15;100.00;99838.19;2093441;28;35993;-73
2022/09/29 01:37:54;;;;;;;31.63;16.65;;;;;;;2.17;100.00;99846.97;2079412;28;33273;-73
2022/09/29 01:39:28;;;;;;;33.85;18.20;;;;;;;2.18;100.00;99835.53;2080817;28;31161;-73
2022/09/29 01:41:13;;;;;;;33.45;16.77;;;;;;;2.16;100.00;99842.59;2084620;28;20046;-73
2022/09/29 01:42:23;;;;;;;34.08;16.55;;;;;;;2.13;100.00;99846.13;2070595;28;31042;-73
2022/09/29 01:43:41;;;;;;;30.83;16.83;;;;;;;2.16;100.00;99848.75;2087220;28;36408;-73
2022/09/29 01:44:59;;;;;;;28.27;16.27;;;;;;;2.14;100.00;99850.53;2083153;28;39114;-73
2022/09/29 01:46:11;;;;;;;30.15;16.50;;;;;;;2.15;100.00;99848.75;2090508;28;33124;-73
2022/09/29 01:47:30;;;;;;;34.60;17.88;;;;;;;2.10;100.00;99852.31;2087551;28;40284;-73
2022/09/29 01:48:45;;;;;;;28.00;15.80;;;;;;;2.07;100.00;99846.16;2091511;28;37947;-73
2022/09/29 01:50:15;;;;;;;30.52;17.25;;;;;;;2.08;100.00;99851.44;2088109;28;33914;-73
2022/09/29 01:51:39;;;;;;;34.65;18.92;;;;;;;2.05;100.00;99850.59;2088315;28;22626;-73
2022/09/29 01:52:54;;;;;;;24.13;14.25;;;;;;;2.07;100.00;99851.44;2093813;28;31495;-73
2022/09/29 01:54:04;;;;;;;36.25;18.52;;;;;;;2.03;100.00;99847.09;2088046;28;29760;-73
2022/09/29 01:55:15;;;;;;;30.65;16.48;;;;;;;2.03;100.00;99847.94;2090574;28;33336;-73
2022/09/29 01:56:29;;;;;;;31.35;17.20;;;;;;;2.00;100.00;99849.72;2087808;28;34470;-73
2022/09/29 01:58:09;;;;;;;29.30;15.88;;;;;;;1.98;100.00;99843.59;2082200;28;27197;-73
2022/09/29 01:59:31;;;;;;;31.38;16.15;;;;;;;1.95;100.00;99848.88;2093638;28;29374;-73
2022/09/29 02:00:42;;;;;;;30.83;17.73;;;;;;;1.95;100.00;99848.88;2086696;28;39192;-73
2022/09/29 02:01:49;;;;;;;31.05;15.35;;;;;;;1.97;100.00;99839.19;2089364;28;28899;-73
2022/09/29 02:02:54;;;;;;;30.98;17.45;;;;;;;1.95;100.00;99844.47;2096251;28;38966;-73
2022/09/29 02:04:03;;;;;;;32.47;17.58;;;;;;;1.95;100.00;99847.09;2088137;28;20046;-73
2022/09/29 02:05:17;;;;;;;33.15;18.63;;;;;;;1.98;100.00;99848.88;2080784;28;32352;-73
2022/09/29 02:06:27;;;;;;;37.58;19.30;;;;;;;2.10;100.00;99852.31;2082728;28;29765;-72
2022/09/29 02:07:37;;;;;;;36.58;19.98;;;;;;;2.13;100.00;99853.19;2090572;28;33484;-73
2022/09/29 02:09:02;;;;;;;39.25;19.95;;;;;;;2.20;100.00;99844.31;2096757;28;33519;-73
2022/09/29 02:10:32;;;;;;;33.35;20.30;;;;;;;2.21;100.00;99846.09;2096754;28;27483;-73
2022/09/29 02:11:39;;;;;;;40.42;21.95;;;;;;;2.25;100.00;99842.53;2087149;28;33686;-73
2022/09/29 02:12:43;;;;;;;36.45;18.90;;;;;;;2.25;100.00;99840.75;2084558;28;32485;-73
2022/09/29 02:14:09;;;;;;;33.70;18.80;;;;;;;2.19;100.00;99853.13;2088303;28;40839;-73
2022/09/29 02:15:21;;;;;;;33.97;18.13;;;;;;;2.13;100.00;99850.53;2096425;28;35839;-73
2022/09/29 02:16:29;;;;;;;35.08;20.13;;;;;;;2.05;100.00;99846.19;2086737;28;32568;-73
2022/09/29 02:17:39;;;;;;;35.55;18.08;;;;;;;2.06;100.00;99854.97;2082063;28;20638;-73
2022/09/29 02:18:53;;;;;;;33.65;18.58;;;;;;;2.05;100.00;99855.88;2081978;28;31329;-73
2022/09/29 02:19:59;;;;;;;36.45;20.63;;;;;;;2.05;100.00;99851.47;2090400;28;38023;-73
2022/09/29 02:21:00;;;;;;;31.10;17.55;;;;;;;2.04;100.00;99846.19;2096574;28;30306;-73
2022/09/29 02:22:02;;;;;;;32.13;18.38;;;;;;;2.03;100.00;99853.22;2087718;28;29367;-73
2022/09/29 02:23:04;;;;;;;35.40;18.67;;;;;;;2.00;100.00;99852.38;2088709;28;20113;-73
2022/09/29 02:24:06;;;;;;;32.33;18.80;;;;;;;1.96;100.00;99846.22;2096088;28;33801;-73
2022/09/29 02:25:11;;;;;;;31.42;18.23;;;;;;;1.94;100.00;99844.47;2096098;28;41056;-73
2022/09/29 02:26:16;;;;;;;29.20;17.55;;;;;;;1.89;100.00;99857.72;2096033;28;33122;-73
2022/09/29 02:27:19;;;;;;;35.30;19.35;;;;;;;1.87;100.00;99852.44;2087350;28;36694;-72
2022/09/29 02:28:21;;;;;;;35.80;20.65;;;;;;;1.89;100.00;99858.56;2087409;28;33080;-73
2022/09/29 02:29:23;;;;;;;34.70;21.23;;;;;;;1.88;100.00;99853.31;2087968;28;30266;-73
2022/09/29 02:30:25;;;;;;;39.15;20.92;;;;;;;1.87;100.00;99851.56;2087179;28;36087;-73
2022/09/29 02:31:27;;;;;;;36.28;19.13;;;;;;;1.88;100.00;99853.31;2088114;28;24034;-73
2022/09/29 02:32:33;;;;;;;33.72;19.48;;;;;;;1.85;100.00;99848.06;2096196;28;35354;-73
2022/09/29 02:33:35;;;;;;;36.90;18.73;;;;;;;1.86;100.00;99855.94;2096952;28;37394;-73
2022/09/29 02:34:44;;;;;;;31.55;17.35;;;;;;;1.85;100.00;99856.84;2096162;28;32830;-73
2022/09/29 02:35:53;;;;;;;28.33;16.40;;;;;;;1.84;100.00;99851.56;2088060;28;33711;-73
2022/09/29 02:37:29;;;;;;;34.80;18.95;;;;;;;1.80;100.00;99856.00;2087889;28;37649;-73
2022/09/29 02:38:45;;;;;;;30.42;16.85;;;;;;;1.80;100.00;99853.34;2092989;28;36121;-73
2022/09/29 02:40:31;;;;;;;31.63;16.13;;;;;;;1.80;100.00;99858.63;2087278;28;39506;-72
2022/09/29 02:41:54;;;;;;;32.30;18.20;;;;;;;1.77;100.00;99858.63;2091628;28;36892;-73
2022/09/29 02:43:28;;;;;;;30.88;18.10;;;;;;;1.75;100.00;99857.75;2096082;28;38635;-73
2022/09/29 02:44:48;;;;;;;29.67;16.77;;;;;;;1.70;100.00;99859.53;2087785;28;33800;-73
2022/09/29 02:46:18;;;;;;;26.88;15.40;;;;;;;1.68;100.00;99864.81;2088959;28;20029;-73
2022/09/29 02:48:09;;;;;;;30.60;17.10;;;;;;;1.64;100.00;99870.13;2091902;28;36124;-73
2022/09/29 02:49:38;;;;;;;25.90;15.25;;;;;;;1.62;100.00;99861.34;2096494;28;26253;-73
2022/09/29 02:51:08;;;;;;;31.48;17.50;;;;;;;1.61;100.00;99872.78;2096587;28;31785;-73
2022/09/29 02:52:50;;;;;;;33.60;16.80;;;;;;;1.60;100.00;99864.00;2096678;28;33694;-73
2022/09/29 02:54:14;;;;;;;28.25;16.58;;;;;;;1.60;100.00;99869.28;2087236;28;38320;-73
2022/09/29 02:55:39;;;;;;;32.25;18.80;;;;;;;1.61;100.00;99865.72;2088054;28;20927;-73
2022/09/29 02:57:24;;;;;;;31.75;17.90;;;;;;;1.64;100.00;99872.78;2094079;28;24515;-73
2022/09/29 02:58:52;;;;;;;32.33;18.52;;;;;;;1.66;100.00;99871.00;2096736;28;27225;-73
2022/09/29 03:00:09;;;;;;;35.40;18.08;;;;;;;1.71;100.00;99871.88;2088086;28;20156;-73
2022/09/29 03:01:13;;;;;;;32.40;18.20;;;;;;;1.67;100.00;99876.28;2084839;28;31796;-73
2022/09/29 03:02:15;;;;;;;31.30;18.55;;;;;;;1.68;100.00;99877.16;2087372;28;36382;-73
2022/09/29 03:03:17;;;;;;;31.48;17.40;;;;;;;1.67;100.00;99881.56;2079875;28;20172;-73
2022/09/29 03:04:22;;;;;;;33.45;18.80;;;;;;;1.65;100.00;99871.88;2080510;28;38377;-73
2022/09/29 03:05:24;;;;;;;37.72;20.45;;;;;;;1.64;100.00;99872.78;2079092;28;41627;-73
2022/09/29 03:06:27;;;;;;;33.63;19.38;;;;;;;1.66;100.00;99873.63;2080817;28;20030;-73
2022/09/29 03:07:28;;;;;;;38.65;20.65;;;;;;;1.69;100.00;99878.91;2095867;28;34146;-73
2022/09/29 03:08:31;;;;;;;36.67;20.13;;;;;;;1.69;100.00;99877.16;2096731;28;27498;-73
2022/09/29 03:09:33;;;;;;;50.75;21.27;;;;;;;1.74;100.00;99878.88;2096176;28;30447;-73
2022/09/29 03:10:34;;;;;;;38.00;20.67;;;;;;;1.73;100.00;99883.28;2096266;28;36932;-73
2022/09/29 03:11:36;;;;;;;45.78;20.25;;;;;;;1.75;100.00;99881.50;2096192;28;32278;-73
2022/09/29 03:12:38;;;;;;;42.42;22.70;;;;;;;1.74;100.00;99887.66;2087311;28;29123;-73
2022/09/29 03:13:40;;;;;;;42.33;22.00;;;;;;;1.74;100.00;99879.75;2087508;28;25470;-73
2022/09/29 03:14:42;;;;;;;40.00;19.45;;;;;;;1.77;100.00;99882.38;2096552;28;21624;-73
2022/09/29 03:15:43;;;;;;;38.08;18.80;;;;;;;1.76;100.00;99882.38;2096259;28;34990;-73
2022/09/29 03:16:46;;;;;;;38.90;20.55;;;;;;;1.73;100.00;99882.41;2096364;28;30290;-73
2022/09/29 03:17:55;;;;;;;36.17;20.17;;;;;;;1.69;100.00;99885.06;2096496;28;20045;-73
2022/09/29 03:18:57;;;;;;;29.85;17.00;;;;;;;1.68;100.00;99883.28;2088104;28;40570;-73
2022/09/29 03:19:59;;;;;;;35.35;18.40;;;;;;;1.65;100.00;99882.44;2087672;28;37006;-73
2022/09/29 03:21:01;;;;;;;31.17;17.50;;;;;;;1.64;100.00;99878.06;2088455;28;21196;-73
2022/09/29 03:22:05;;;;;;;29.02;16.55;;;;;;;1.60;100.00;99884.19;2087872;28;31910;-74
2022/09/29 03:23:07;;;;;;;29.27;15.73;;;;;;;1.58;100.00;99883.34;2087789;28;30865;-74
2022/09/29 03:24:09;;;;;;;37.60;19.70;;;;;;;1.53;100.00;99878.97;2088196;28;35633;-73
2022/09/29 03:25:16;;;;;;;30.00;16.80;;;;;;;1.54;100.00;99879.81;2088751;28;20040;-73
2022/09/29 03:26:19;;;;;;;39.83;21.10;;;;;;;1.56;100.00;99874.56;2087597;28;38706;-73
2022/09/29 03:27:21;;;;;;;80.63;21.77;;;;;;;1.56;100.00;99883.34;2079377;28;27435;-73
2022/09/29 03:28:22;;;;;;;47.15;19.33;;;;;;;1.59;100.00;99882.47;2079802;28;33427;-73
2022/09/29 03:29:24;;;;;;;52.80;19.25;;;;;;;1.60;100.00;99881.56;2087163;28;29485;-73
2022/09/29 03:30:26;;;;;;;98.57;21.27;;;;;;;1.62;100.00;99882.47;2088041;28;32417;-72
2022/09/29 03:31:28;;;;;;;61.45;19.05;;;;;;;1.61;100.00;99875.41;2087538;28;38450;-74
2022/09/29 03:32:29;;;;;;;80.95;19.38;;;;;;;1.62;100.00;99875.41;2087815;28;35116;-73
2022/09/29 03:33:31;;;;;;;81.65;18.35;;;;;;;1.62;100.00;99877.19;2088113;28;31184;-74
2022/09/29 03:34:34;;;;;;;61.13;19.25;;;;;;;1.60;100.00;99885.09;2090065;28;20042;-73
2022/09/29 03:35:35;;;;;;;90.63;17.58;;;;;;;1.62;100.00;99877.19;2088099;28;32087;-73
2022/09/29 03:36:37;;;;;;;230.35;26.20;;;;;;;1.59;100.00;99879.81;2087591;28;34422;-73
2022/09/29 03:37:41;;;;;;;85.88;23.80;;;;;;;1.64;100.00;99872.78;2088150;28;32758;-73
2022/09/29 03:38:45;;;;;;;86.53;22.70;;;;;;;1.66;100.00;99873.63;2078606;28;33573;-73
2022/09/29 03:39:49;;;;;;;45.70;18.02;;;;;;;1.68;100.00;99882.41;2079347;28;36129;-74
2022/09/29 03:40:51;;;;;;;44.85;19.00;;;;;;;1.66;100.00;99879.78;2087630;28;35411;-74
2022/09/29 03:41:53;;;;;;;39.33;20.85;;;;;;;1.64;100.00;99878.06;2087515;28;38661;-74
2022/09/29 03:42:55;;;;;;;55.58;19.40;;;;;;;1.64;100.00;99878.91;2088538;28;20052;-73
2022/09/29 03:43:56;;;;;;;44.10;18.13;;;;;;;1.64;100.00;99881.56;2087615;28;38791;-74
2022/09/29 03:44:58;;;;;;;44.90;18.60;;;;;;;1.63;100.00;99878.91;2079267;28;20887;-73
2022/09/29 03:46:00;;;;;;;54.70;21.08;;;;;;;1.62;100.00;99885.97;2079187;28;35175;-74
2022/09/29 03:47:02;;;;;;;61.30;21.50;;;;;;;1.63;100.00;99884.19;2087888;28;33108;-73
2022/09/29 03:48:03;;;;;;;58.47;19.75;;;;;;;1.64;100.00;99884.19;2089484;28;21054;-73
2022/09/29 03:49:05;;;;;;;45.13;19.90;;;;;;;1.66;100.00;99890.34;2096225;28;34641;-74
2022/09/29 03:50:07;;;;;;;62.97;20.77;;;;;;;1.68;100.00;99887.69;2096135;28;33810;-74
2022/09/29 03:51:09;;;;;;;63.63;22.75;;;;;;;1.74;100.00;99884.16;2087687;28;33952;-73
2022/09/29 03:52:11;;;;;;;84.18;23.77;;;;;;;1.80;100.00;99887.66;2087170;28;37879;-74
2022/09/29 03:53:14;;;;;;;64.97;22.60;;;;;;;1.82;100.00;99885.88;2086842;28;41839;-74
2022/09/29 03:54:16;;;;;;;52.85;20.42;;;;;;;1.86;100.00;99881.47;2088147;28;20262;-74
2022/09/29 03:55:18;;;;;;;63.42;21.83;;;;;;;1.86;100.00;99892.03;2095597;28;36407;-74
2022/09/29 03:56:20;;;;;;;50.20;20.08;;;;;;;1.83;100.00;99892.94;2096667;28;20044;-73
2022/09/29 03:57:24;;;;;;;39.15;20.13;;;;;;;1.79;100.00;99891.16;2096357;28;20049;-74
2022/09/29 03:58:25;;;;;;;41.15;21.08;;;;;;;1.77;100.00;99887.66;2096085;28;30748;-74
2022/09/29 03:59:27;;;;;;;38.08;21.88;;;;;;;1.74;100.00;99887.66;2096520;28;20194;-74
2022/09/29 04:00:29;;;;;;;45.80;19.80;;;;;;;1.73;100.00;99887.69;2095753;28;37569;-74
2022/09/29 04:01:31;;;;;;;40.08;19.83;;;;;;;1.71;100.00;99890.34;2096239;28;30903;-73
2022/09/29 04:02:34;;;;;;;47.47;20.83;;;;;;;1.72;100.00;99892.06;2095951;28;36134;-73
2022/09/29 04:03:40;;;;;;;60.58;23.55;;;;;;;1.79;100.00;99887.66;2096834;28;20068;-73
2022/09/29 04:04:42;;;;;;;39.47;20.42;;;;;;;1.78;100.00;99892.06;2096673;28;20461;-73
2022/09/29 04:05:46;;;;;;;39.33;19.52;;;;;;;1.77;100.00;99892.06;2086671;28;33936;-74
2022/09/29 04:06:48;;;;;;;58.90;23.23;;;;;;;1.75;100.00;99888.56;2071029;28;27813;-74
2022/09/29 04:07:49;;;;;;;57.60;24.42;;;;;;;1.79;100.00;99887.66;2079700;28;30265;-74
2022/09/29 04:08:51;;;;;;;46.47;20.65;;;;;;;1.80;100.00;99892.94;2087205;28;20119;-73
2022/09/29 04:09:53;;;;;;;35.53;19.67;;;;;;;1.80;100.00;99892.94;2071023;28;35642;-74
2022/09/29 04:10:57;;;;;;;35.00;19.80;;;;;;;1.84;100.00;99904.34;2070620;28;38808;-74
2022/09/29 04:11:58;;;;;;;39.75;21.08;;;;;;;1.83;100.00;99902.59;2079049;28;30585;-74
2022/09/29 04:13:00;;;;;;;45.97;22.92;;;;;;;1.81;100.00;99901.72;2087921;28;36723;-73
2022/09/29 04:14:02;;;;;;;49.92;23.90;;;;;;;1.84;100.00;99899.94;2087622;28;33794;-74
2022/09/29 04:15:05;;;;;;;43.67;21.45;;;;;;;1.88;100.00;99903.44;2087929;28;32851;-74
2022/09/29 04:16:10;;;;;;;64.28;23.95;;;;;;;1.90;100.00;99910.50;2087752;28;31829;-73
2022/09/29 04:17:11;;;;;;;46.22;23.17;;;;;;;1.91;100.00;99911.38;2078228;28;39479;-74
2022/09/29 04:18:13;;;;;;;43.55;20.58;;;;;;;1.94;100.00;99895.53;2071720;28;20038;-73
2022/09/29 04:19:15;;;;;;;44.33;23.27;;;;;;;1.96;100.00;99901.66;2078597;28;38709;-74
2022/09/29 04:20:17;;;;;;;52.88;24.27;;;;;;;1.95;100.00;99906.94;2087959;28;28424;-74
2022/09/29 04:21:21;;;;;;;46.63;24.05;;;;;;;2.00;100.00;99895.47;2087718;28;20038;-73
2022/09/29 04:22:23;;;;;;;57.97;26.75;;;;;;;2.06;100.00;99910.41;2087010;28;41348;-74
2022/09/29 04:23:30;;;;;;;44.20;22.48;;;;;;;2.04;100.00;99906.91;2088107;28;20096;-74
2022/09/29 04:24:32;;;;;;;60.80;25.30;;;;;;;2.02;100.00;99903.41;2078444;28;37586;-74
2022/09/29 04:25:34;;;;;;;35.40;19.15;;;;;;;1.99;100.00;99909.56;2079630;28;20078;-74
2022/09/29 04:26:38;;;;;;;41.47;22.00;;;;;;;1.96;100.00;99911.34;2089641;28;20044;-74
2022/09/29 04:27:40;;;;;;;47.28;21.38;;;;;;;1.91;100.00;99906.94;2080230;28;27831;-74
2022/09/29 04:28:44;;;;;;;48.63;21.40;;;;;;;1.90;100.00;99907.84;2080089;28;36829;-73
2022/09/29 04:29:46;;;;;;;54.08;21.98;;;;;;;1.90;100.00;99907.84;2089032;28;31205;-73
2022/09/29 04:30:47;;;;;;;59.65;24.17;;;;;;;1.88;100.00;99911.38;2089118;28;31974;-73
2022/09/29 04:31:49;;;;;;;56.03;22.05;;;;;;;1.89;100.00;99908.72;2088823;28;39929;-73
2022/09/29 04:32:51;;;;;;;87.28;23.15;;;;;;;1.94;100.00;99911.34;2091018;28;33083;-74
2022/09/29 04:33:52;;;;;;;64.43;22.92;;;;;;;1.94;100.00;99910.47;2097181;28;38406;-73
2022/09/29 04:34:54;;;;;;;64.95;24.60;;;;;;;1.95;100.00;99906.94;2098020;28;34402;-74
2022/09/29 04:35:57;;;;;;;55.17;24.75;;;;;;;1.96;100.00;99906.06;2097022;28;33145;-74
2022/09/29 04:37:01;;;;;;;66.55;25.40;;;;;;;1.96;100.00;99892.88;2089283;28;20045;-73
2022/09/29 04:38:03;;;;;;;49.28;21.23;;;;;;;1.94;100.00;99902.53;2088637;28;36369;-74
2022/09/29 04:39:07;;;;;;;50.17;21.17;;;;;;;1.91;100.00;99901.69;2097640;28;20037;-74
2022/09/29 04:40:10;;;;;;;52.95;24.23;;;;;;;1.94;100.00;99911.34;2097264;28;32865;-74
2022/09/29 04:41:12;;;;;;;84.07;24.63;;;;;;;1.97;100.00;99899.91;2097841;28;22767;-74
2022/09/29 04:42:13;;;;;;;110.82;25.13;;;;;;;1.97;100.00;99902.53;2097136;28;35739;-74
2022/09/29 04:43:15;;;;;;;73.25;22.73;;;;;;;1.97;100.00;99900.75;2097354;28;20897;-74
2022/09/29 04:44:21;;;;;;;72.53;23.25;;;;;;;1.98;100.00;99901.66;2096317;28;36820;-73
2022/09/29 04:45:22;;;;;;;89.72;22.77;;;;;;;1.97;100.00;99891.97;2097792;28;30338;-73
2022/09/29 04:46:26;;;;;;;80.25;24.50;;;;;;;1.96;100.00;99898.16;2097155;28;37547;-74
2022/09/29 04:47:28;;;;;;;52.53;22.85;;;;;;;1.94;100.00;99890.25;2097063;28;32561;-74
2022/09/29 04:48:30;;;;;;;52.38;21.85;;;;;;;1.96;100.00;99908.72;2098031;28;20045;-73
2022/09/29 04:49:36;;;;;;;46.20;22.55;;;;;;;1.95;100.00;99899.03;2088119;28;34282;-74
2022/09/29 04:50:42;;;;;;;64.00;24.65;;;;;;;1.91;100.00;99901.69;2088530;28;20902;-74
2022/09/29 04:51:44;;;;;;;73.00;22.95;;;;;;;1.90;100.00;99907.84;2097709;28;20037;-74
2022/09/29 04:52:45;;;;;;;59.33;24.25;;;;;;;1.93;100.00;99892.88;2088256;28;33643;-74
2022/09/29 04:53:47;;;;;;;55.65;21.90;;;;;;;1.93;100.00;99911.38;2088668;28;31402;-73
2022/09/29 04:54:49;;;;;;;45.58;20.20;;;;;;;1.94;100.00;99908.72;2097167;28;32946;-74
2022/09/29 04:55:51;;;;;;;76.13;23.98;;;;;;;1.91;100.00;99901.69;2097396;28;35507;-73
2022/09/29 04:56:52;;;;;;;56.78;21.83;;;;;;;1.93;100.00;99903.44;2097146;28;31201;-74
2022/09/29 04:57:54;;;;;;;47.95;22.20;;;;;;;1.89;100.00;99907.84;2098354;28;20049;-74
2022/09/29 04:58:57;;;;;;;63.13;24.95;;;;;;;1.88;100.00;99907.00;2096949;28;36319;-74
2022/09/29 05:00:00;;;;;;;67.68;22.02;;;;;;;1.92;100.00;99910.50;2088314;28;31500;-74
2022/09/29 05:01:12;;;;;;;82.65;23.33;;;;;;;1.90;100.00;99907.84;2088591;28;29383;-73
2022/09/29 05:02:14;;;;;;;71.55;23.60;;;;;;;1.88;100.00;99907.00;2097405;28;32513;-73
2022/09/29 05:03:16;;;;;;;73.28;24.52;;;;;;;1.88;100.00;99907.00;2096935;28;36519;-73
2022/09/29 05:04:18;;;;;;;93.72;26.27;;;;;;;1.90;100.00;99910.50;2096821;28;33918;-74
2022/09/29 05:05:20;;;;;;;73.50;26.15;;;;;;;1.92;100.00;99905.22;2097747;28;20858;-73
2022/09/29 05:06:21;;;;;;;50.85;24.45;;;;;;;1.94;100.00;99914.00;2097152;28;37020;-73
2022/09/29 05:07:23;;;;;;;51.97;26.75;;;;;;;1.99;100.00;99898.13;2096515;28;40268;-73
2022/09/29 05:08:25;;;;;;;70.53;26.77;;;;;;;1.97;100.00;99916.59;2097265;28;37349;-73
2022/09/29 05:09:27;;;;;;;55.95;27.45;;;;;;;2.04;100.00;99898.97;2097133;28;35171;-73
2022/09/29 05:10:33;;;;;;;74.15;27.00;;;;;;;2.02;100.00;99898.97;2087882;28;33393;-73
2022/09/29 05:11:35;;;;;;;97.18;30.25;;;;;;;2.06;100.00;99913.03;2089655;28;20147;-73
2022/09/29 05:12:37;;;;;;;79.63;28.98;;;;;;;2.08;100.00;99908.63;2096992;28;34519;-73